Time;durP1;ratioP1;P1;durP2;ratioP2;P2;SDS_P1;SDS_P2;PMS_P1;PMS_P2;Temp;Humidity;BMP_temperature;BMP_pressure;BME280_temperature;BME280_humidity;BME280_pressure;Samples;Min_cycle;Max_cycle;Signal;HPM_P1;HPM_P2
2023/09/01 00:01:25;;;;;;;;;;;;;;;12.39;100.00;101168.19;5035578;28;19956;-74
2023/09/01 00:03:51;;;;;;;;;;;;;;;12.36;100.00;101169.28;5023853;28;20111;-74
2023/09/01 00:06:16;;;;;;;;;;;;;;;12.37;100.00;101159.38;5030401;28;20440;-74
2023/09/01 00:08:42;;;;;;;;;;;;;;;12.35;100.00;101166.72;5017646;28;19916;-74
2023/09/01 00:11:07;;;;;;;;;;;;;;;12.30;100.00;101162.56;5034396;28;19921;-73
2023/09/01 00:13:33;;;;;;;;;;;;;;;12.29;100.00;101158.16;5030443;28;19933;-73
2023/09/01 00:15:58;;;;;;;;;;;;;;;12.33;100.00;101147.13;5035527;28;20163;-74
2023/09/01 00:18:23;;;;;;;;;;;;;;;12.39;100.00;101142.13;5015372;28;19966;-73
2023/09/01 00:20:48;;;;;;;;;;;;;;;12.45;100.00;101148.84;5036125;28;20032;-73
2023/09/01 00:23:14;;;;;;;;;;;;;;;12.39;100.00;101149.31;5015505;28;19955;-74
2023/09/01 00:25:39;;;;;;;;;;;;;;;12.36;100.00;101150.44;5034864;28;19925;-74
2023/09/01 00:28:04;;;;;;;;;;;;;;;12.27;100.00;101149.34;5033051;28;20291;-73
2023/09/01 00:30:29;;;;;;;;;;;;;;;12.18;100.00;101142.00;5014787;28;19928;-73
2023/09/01 00:32:55;;;;;;;;;;;;;;;12.12;100.00;101139.78;5038912;28;19943;-73
2023/09/01 00:35:20;;;;;;;;;;;;;;;12.07;100.00;101131.22;5038614;28;19921;-74
2023/09/01 00:37:45;;;;;;;;;;;;;;;12.04;100.00;101137.72;5033735;28;19927;-73
2023/09/01 00:40:11;;;;;;;;;;;;;;;12.01;100.00;101140.66;5033543;28;19925;-74
2023/09/01 00:42:36;;;;;;;;;;;;;;;12.02;100.00;101141.53;5036803;28;19921;-73
2023/09/01 00:45:01;;;;;;;;;;;;;;;12.00;100.00;101141.63;5037195;28;20421;-73
2023/09/01 00:47:26;;;;;;;;;;;;;;;11.94;100.00;101134.88;5031981;28;19917;-73
2023/09/01 00:49:51;;;;;;;;;;;;;;;11.91;100.00;101135.09;5018990;28;20287;-74
2023/09/01 00:52:17;;;;;;;;;;;;;;;11.83;100.00;101137.53;5034208;28;20446;-74
2023/09/01 00:54:42;;;;;;;;;;;;;;;11.79;100.00;101134.25;5031760;28;20409;-74
2023/09/01 00:57:07;;;;;;;;;;;;;;;11.74;100.00;101132.91;5015153;28;20291;-74
2023/09/01 00:59:32;;;;;;;;;;;;;;;11.69;100.00;101133.25;5030449;28;20379;-74
2023/09/01 01:01:58;;;;;;;;;;;;;;;11.66;100.00;101128.09;5033251;28;20397;-74
2023/09/01 01:04:23;;;;;;;;;;;;;;;11.70;100.00;101119.69;5027466;28;19935;-74
2023/09/01 01:06:55;;;;;;;;;;;;;;;11.77;100.00;101128.13;5031980;28;19979;-74
2023/09/01 01:09:39;;;;;;;;;;;;;;;11.91;100.00;101131.56;5032091;28;20007;-74
2023/09/01 01:12:14;;;;;;;;;;;;;;;11.99;100.00;101131.84;5032086;28;20446;-74
2023/09/01 01:14:40;;;;;;;;;;;;;;;12.05;100.00;101136.75;5036984;28;20297;-74
2023/09/01 01:17:06;;;;;;;;;;;;;;;12.09;100.00;101142.72;5033370;28;19921;-74
2023/09/01 01:19:50;;;;;;;;;;;;;;;12.13;100.00;101146.88;5033302;28;19927;-73
2023/09/01 01:22:19;;;;;;;;;;;;;;;12.18;100.00;101151.94;5032482;28;19921;-74
2023/09/01 01:24:45;;;;;;;;;;;;;;;12.20;100.00;101156.19;5032072;28;19951;-74
2023/09/01 01:27:10;;;;;;;;;;;;;;;12.15;100.00;101151.19;5032504;28;20300;-74
2023/09/01 01:29:35;;;;;;;;;;;;;;;12.15;100.00;101150.31;5033771;28;19994;-74
2023/09/01 01:32:00;;;;;;;;;;;;;;;12.11;100.00;101159.59;5031557;28;19968;-74
2023/09/01 01:34:38;;;;;;;;;;;;;;;12.11;100.00;101147.03;5033463;28;20417;-74
2023/09/01 01:37:06;;;;;;;;;;;;;;;12.12;100.00;101146.06;5031811;28;20133;-74
2023/09/01 01:39:31;;;;;;;;;;;;;;;12.14;100.00;101149.47;5034097;28;19928;-74
2023/09/01 01:42:01;;;;;;;;;;;;;;;12.07;100.00;101150.06;5033692;28;19920;-74
2023/09/01 01:44:29;;;;;;;;;;;;;;;12.01;100.00;101154.09;5002664;28;19925;-74
2023/09/01 01:46:55;;;;;;;;;;;;;;;12.02;100.00;101154.97;5019690;28;19920;-74
2023/09/01 01:49:20;;;;;;;;;;;;;;;12.04;100.00;101148.47;5028827;28;20393;-74
2023/09/01 01:51:45;;;;;;;;;;;;;;;12.07;100.00;101148.25;5033256;28;20069;-74
2023/09/01 01:54:10;;;;;;;;;;;;;;;12.10;100.00;101153.38;5028913;28;20652;-73
2023/09/01 01:56:36;;;;;;;;;;;;;;;12.13;100.00;101163.03;5031142;28;20011;-73
2023/09/01 01:59:04;;;;;;;;;;;;;;;12.17;100.00;101153.75;5042847;28;19920;-73
2023/09/01 02:01:29;;;;;;;;;;;;;;;12.23;100.00;101155.09;5025418;28;20444;-73
2023/09/01 02:03:55;;;;;;;;;;;;;;;12.27;100.00;101149.34;5031820;28;20019;-74
2023/09/01 02:06:20;;;;;;;;;;;;;;;12.30;100.00;101149.13;5031213;28;20530;-74
2023/09/01 02:08:45;;;;;;;;;;;;;;;12.37;100.00;101148.59;5037496;28;20104;-74
2023/09/01 02:11:10;;;;;;;;;;;;;;;12.40;100.00;101151.91;5031273;28;19920;-74
2023/09/01 02:13:35;;;;;;;;;;;;;;;12.44;100.00;101150.69;5035461;28;19920;-74
2023/09/01 02:16:01;;;;;;;;;;;;;;;12.48;100.00;101145.03;5029458;28;19921;-74
2023/09/01 02:18:26;;;;;;;;;;;;;;;12.52;100.00;101150.06;5033134;28;20007;-73
2023/09/01 02:20:51;;;;;;;;;;;;;;;12.55;100.00;101143.56;5031923;28;19927;-74
2023/09/01 02:23:17;;;;;;;;;;;;;;;12.55;100.00;101149.81;5029979;28;19921;-74
2023/09/01 02:25:45;;;;;;;;;;;;;;;12.65;100.00;101146.34;5031206;28;20284;-74
2023/09/01 02:28:10;;;;;;;;;;;;;;;12.70;100.00;101138.75;5033181;28;19928;-74
2023/09/01 02:30:35;;;;;;;;;;;;;;;12.72;100.00;101136.78;5028622;28;19925;-74
2023/09/01 02:33:01;;;;;;;;;;;;;;;12.74;100.00;101142.91;5031025;28;19925;-74
2023/09/01 02:35:27;;;;;;;;;;;;;;;12.78;100.00;101141.69;5032856;28;19943;-74
2023/09/01 02:37:52;;;;;;;;;;;;;;;12.81;100.00;101136.03;5029922;28;20291;-74
2023/09/01 02:40:17;;;;;;;;;;;;;;;12.81;100.00;101138.75;5031008;28;21103;-74
2023/09/01 02:42:42;;;;;;;;;;;;;;;12.83;100.00;101138.59;5035638;28;20026;-74
2023/09/01 02:45:10;;;;;;;;;;;;;;;12.86;100.00;101141.03;5032966;28;19928;-74
2023/09/01 02:47:38;;;;;;;;;;;;;;;12.88;100.00;101141.78;5034978;28;20413;-74
2023/09/01 02:50:04;;;;;;;;;;;;;;;12.89;100.00;101146.19;5035160;28;19929;-74
2023/09/01 02:52:29;;;;;;;;;;;;;;;12.90;100.00;101147.91;5038805;28;20207;-74
2023/09/01 02:54:55;;;;;;;;;;;;;;;12.66;100.00;101113.91;5036085;28;19971;-74
2023/09/01 02:57:20;;;;;;;;;;;;;;;12.90;100.00;101145.19;5041213;28;20011;-74
2023/09/01 02:59:46;;;;;;;;;;;;;;;12.92;100.00;101142.38;5030916;28;19956;-73
2023/09/01 03:02:11;;;;;;;;;;;;;;;12.92;100.00;101136.97;5041467;28;19920;-74
2023/09/01 03:04:37;;;;;;;;;;;;;;;12.94;100.00;101137.69;5033658;28;19917;-73
2023/09/01 03:07:02;;;;;;;;;;;;;;;12.96;100.00;101133.03;5032101;28;19923;-74
2023/09/01 03:09:27;;;;;;;;;;;;;;;12.98;100.00;101133.78;5030361;28;19929;-74
2023/09/01 03:11:52;;;;;;;;;;;;;;;13.00;100.00;101135.34;5035828;28;19994;-73
2023/09/01 03:14:18;;;;;;;;;;;;;;;13.02;100.00;101135.22;5033318;28;20047;-73
2023/09/01 03:16:43;;;;;;;;;;;;;;;13.04;100.00;101130.56;5035549;28;19967;-74
2023/09/01 03:19:09;;;;;;;;;;;;;;;13.02;100.00;101132.53;5039837;28;20546;-74
2023/09/01 03:21:34;;;;;;;;;;;;;;;12.97;100.00;101124.84;5031975;28;19965;-74
2023/09/01 03:23:59;;;;;;;;;;;;;;;13.00;100.00;101132.66;5031861;28;19921;-73
2023/09/01 03:26:24;;;;;;;;;;;;;;;13.02;100.00;101127.16;5036938;28;19948;-74
2023/09/01 03:28:50;;;;;;;;;;;;;;;13.05;100.00;101125.03;5036379;28;20007;-74
2023/09/01 03:31:15;;;;;;;;;;;;;;;13.08;100.00;101123.06;5038366;28;19931;-74
2023/09/01 03:33:41;;;;;;;;;;;;;;;13.05;100.00;101119.66;5036500;28;19943;-74
2023/09/01 03:36:07;;;;;;;;;;;;;;;13.04;100.00;101107.16;5034328;28;20375;-74
2023/09/01 03:38:33;;;;;;;;;;;;;;;13.09;100.00;101114.00;5034198;28;20354;-74
2023/09/01 03:41:00;;;;;;;;;;;;;;;13.09;100.00;101114.00;5033625;28;19925;-74
2023/09/01 03:43:25;;;;;;;;;;;;;;;13.07;100.00;101118.66;5036833;28;19921;-74
2023/09/01 03:45:50;;;;;;;;;;;;;;;13.04;100.00;101120.63;5039022;28;20373;-74
2023/09/01 03:48:16;;;;;;;;;;;;;;;13.04;100.00;101114.41;5033241;28;20390;-74
2023/09/01 03:50:41;;;;;;;;;;;;;;;13.06;100.00;101115.13;5034260;28;20386;-74
2023/09/01 03:53:06;;;;;;;;;;;;;;;13.02;100.00;101119.06;5034185;28;19925;-74
2023/09/01 03:55:32;;;;;;;;;;;;;;;13.05;100.00;101108.03;5036868;28;19923;-74
2023/09/01 03:57:57;;;;;;;;;;;;;;;13.10;100.00;101110.31;5032626;28;19920;-74
2023/09/01 04:00:22;;;;;;;;;;;;;;;13.15;100.00;101110.78;5039558;28;20299;-74
2023/09/01 04:02:48;;;;;;;;;;;;;;;13.20;100.00;101108.56;5029371;28;19931;-73
2023/09/01 04:05:13;;;;;;;;;;;;;;;13.24;100.00;101112.72;5025197;28;19924;-74
2023/09/01 04:07:38;;;;;;;;;;;;;;;13.29;100.00;101098.84;5024855;28;19927;-74
2023/09/01 04:10:04;;;;;;;;;;;;;;;13.32;100.00;101098.59;5030132;28;19956;-74
2023/09/01 04:12:29;;;;;;;;;;;;;;;13.30;100.00;101104.09;5033086;28;19928;-74
2023/09/01 04:14:54;;;;;;;;;;;;;;;13.12;100.00;101073.31;5032170;28;19942;-74
2023/09/01 04:17:20;;;;;;;;;;;;;;;13.34;100.00;101102.84;5030541;28;19960;-74
2023/09/01 04:19:46;;;;;;;;;;;;;;;13.38;100.00;101106.13;5034216;28;20011;-74
2023/09/01 04:22:11;;;;;;;;;;;;;;;13.40;100.00;101106.00;5035360;28;19920;-74
2023/09/01 04:24:36;;;;;;;;;;;;;;;13.39;100.00;101097.03;5031365;28;19912;-74
2023/09/01 04:27:02;;;;;;;;;;;;;;;13.40;100.00;101097.91;5038331;28;19920;-74
2023/09/01 04:29:27;;;;;;;;;;;;;;;13.45;100.00;101093.03;5037465;28;19931;-74
2023/09/01 04:31:53;;;;;;;;;;;;;;;13.46;100.00;101084.78;5032136;28;20273;-74
2023/09/01 04:34:19;;;;;;;;;;;;;;;13.50;100.00;101080.00;5040707;28;20570;-74
2023/09/01 04:36:44;;;;;;;;;;;;;;;13.50;100.00;101080.84;5021879;28;20035;-74
2023/09/01 04:39:09;;;;;;;;;;;;;;;13.45;100.00;101096.56;5029250;28;20379;-74
2023/09/01 04:41:35;;;;;;;;;;;;;;;13.38;100.00;101097.19;5033689;28;20380;-74
2023/09/01 04:44:00;;;;;;;;;;;;;;;13.35;100.00;101101.84;5022168;28;19924;-74
2023/09/01 04:46:25;;;;;;;;;;;;;;;13.35;100.00;101096.47;5031184;28;20092;-74
2023/09/01 04:48:50;;;;;;;;;;;;;;;13.35;100.00;101109.94;5029933;28;20025;-74
2023/09/01 04:51:15;;;;;;;;;;;;;;;13.37;100.00;101103.56;5030382;28;20330;-74
2023/09/01 04:53:41;;;;;;;;;;;;;;;13.38;100.00;101110.69;5016468;28;20330;-74
2023/09/01 04:56:06;;;;;;;;;;;;;;;13.42;100.00;101115.69;5035336;28;20375;-74
2023/09/01 04:58:31;;;;;;;;;;;;;;;13.47;100.00;101115.31;5037146;28;19963;-74
2023/09/01 05:00:56;;;;;;;;;;;;;;;13.50;100.00;101120.47;5029296;28;20018;-74
2023/09/01 05:03:22;;;;;;;;;;;;;;;13.54;100.00;101121.03;5043410;28;19921;-74
2023/09/01 05:05:47;;;;;;;;;;;;;;;13.56;100.00;101113.66;5027117;28;20224;-74
2023/09/01 05:08:13;;;;;;;;;;;;;;;13.59;100.00;101113.41;5025060;28;20351;-74
2023/09/01 05:10:38;;;;;;;;;;;;;;;13.61;100.00;101117.66;5025952;28;20422;-74
2023/09/01 05:13:03;;;;;;;;;;;;;;;13.69;100.00;101108.91;5025190;28;20427;-74
2023/09/01 05:15:30;;;;;;;;;;;;;;;13.71;100.00;101114.19;5029227;28;20525;-74
2023/09/01 05:17:55;;;;;;;;;;;;;;;13.72;100.00;101111.34;5026476;28;19920;-74
2023/09/01 05:20:20;;;;;;;;;;;;;;;13.73;100.00;101113.06;5027458;28;19920;-74
2023/09/01 05:22:46;;;;;;;;;;;;;;;13.82;100.00;101111.38;5028595;28;19921;-74
2023/09/01 05:25:11;;;;;;;;;;;;;;;13.80;100.00;101116.06;5028266;28;19963;-74
2023/09/01 05:27:36;;;;;;;;;;;;;;;13.81;100.00;101112.38;5027721;28;19921;-74
2023/09/01 05:30:01;;;;;;;;;;;;;;;13.85;100.00;101112.97;5024104;28;20333;-74
2023/09/01 05:32:29;;;;;;;;;;;;;;;13.89;100.00;101100.94;5015664;28;20391;-74
2023/09/01 05:34:54;;;;;;;;;;;;;;;13.92;100.00;101101.50;5028276;28;19927;-74
2023/09/01 05:37:19;;;;;;;;;;;;;;;13.89;100.00;101104.47;5012388;28;19925;-75
2023/09/01 05:39:44;;;;;;;;;;;;;;;13.93;100.00;101099.66;5017912;28;20071;-74
2023/09/01 05:42:10;;;;;;;;;;;;;;;13.91;100.00;101101.63;5031610;28;19928;-74
2023/09/01 05:44:35;;;;;;;;;;;;;;;13.98;100.00;101101.97;5034295;28;20228;-74
2023/09/01 05:47:00;;;;;;;;;;;;;;;13.97;100.00;101102.94;5018543;28;20269;-74
2023/09/01 05:49:26;;;;;;;;;;;;;;;14.01;100.00;101104.41;5015165;28;19948;-74
2023/09/01 05:51:51;;;;;;;;;;;;;;;14.03;100.00;101114.06;5033247;28;19959;-75
2023/09/01 05:54:17;;;;;;;;;;;;;;;13.99;100.00;101118.00;5017874;28;20028;-74
2023/09/01 05:56:42;;;;;;;;;;;;;;;13.98;100.00;101119.00;5029570;28;20395;-74
2023/09/01 05:59:08;;;;;;;;;;;;;;;14.04;100.00;101126.56;5013562;28;19925;-74
2023/09/01 06:01:35;;;;;;;;;;;;;;;14.11;100.00;101126.88;5025637;28;19968;-75
2023/09/01 06:04:01;;;;;;;;;;;;;;;14.20;100.00;101120.66;5009137;28;19928;-74
2023/09/01 06:06:26;;;;;;;;;;;;;;;14.20;100.00;101114.38;5027742;28;19925;-74
2023/09/01 06:08:51;;;;;;;;;;;;;;;14.25;100.00;101099.50;5014570;28;20055;-74
2023/09/01 06:11:17;;;;;;;;;;;;;;;14.32;100.00;101096.22;5014979;28;19920;-74
2023/09/01 06:13:42;;;;;;;;;;;;;;;14.40;100.00;101091.00;5033688;28;19920;-74
2023/09/01 06:16:08;;;;;;;;;;;;;;;14.46;100.00;101097.69;5032562;28;19917;-74
2023/09/01 06:18:34;;;;;;;;;;;;;;;14.46;100.00;101103.97;5015912;28;19921;-74
2023/09/01 06:20:59;;;;;;;;;;;;;;;14.50;100.00;101101.81;5024530;28;20264;-74
2023/09/01 06:23:24;;;;;;;;;;;;;;;14.48;100.00;101106.50;5015913;28;20723;-74
2023/09/01 06:25:49;;;;;;;;;;;;;;;14.57;100.00;101111.09;5014222;28;20884;-74
2023/09/01 06:28:15;;;;;;;;;;;;;;;14.52;100.00;101113.34;5051590;28;20015;-74
2023/09/01 06:30:41;;;;;;;;;;;;;;;14.55;100.00;101116.66;5033641;28;19932;-74
2023/09/01 06:33:08;;;;;;;;;;;;;;;14.50;100.00;101118.03;5017993;28;19920;-75
2023/09/01 06:35:33;;;;;;;;;;;;;;;14.58;100.00;101117.34;5014346;28;19924;-74
2023/09/01 06:37:58;;;;;;;;;;;;;;;14.52;100.00;101126.88;5012418;28;20322;-73
2023/09/01 06:40:23;;;;;;;;;;;;;;;14.62;100.00;101127.75;5017698;28;20244;-74
2023/09/01 06:42:48;;;;;;;;;;;;;;;14.59;100.00;101119.91;5034894;28;19924;-73
2023/09/01 06:45:14;;;;;;;;;;;;;;;14.66;100.00;101128.31;5031619;28;19983;-74
2023/09/01 06:47:39;;;;;;;;;;;;;;;14.63;100.00;101125.88;5015412;28;20031;-75
2023/09/01 06:50:05;;;;;;;;;;;;;;;14.79;100.00;101122.69;5029037;28;19929;-74
2023/09/01 06:52:30;;;;;;;;;;;;;;;14.94;100.00;101129.41;5013719;28;19921;-74
2023/09/01 06:54:55;;;;;;;;;;;;;;;15.13;100.00;101122.28;5014006;28;19921;-74
2023/09/01 06:57:20;;;;;;;;;;;;;;;15.20;100.00;101120.72;5016157;28;20367;-75
2023/09/01 06:59:46;;;;;;;;;;;;;;;15.28;100.00;101128.13;5018699;28;20476;-74
2023/09/01 07:02:11;;;;;;;;;;;;;;;15.29;100.00;101125.25;5011653;28;19928;-74
2023/09/01 07:04:36;;;;;;;;;;;;;;;15.35;100.00;101126.53;5029306;28;19970;-74
2023/09/01 07:07:02;;;;;;;;;;;;;;;15.30;100.00;101126.97;5017449;28;20111;-74
2023/09/01 07:09:27;;;;;;;;;;;;;;;15.32;100.00;101125.97;5013783;28;19967;-74
2023/09/01 07:11:52;;;;;;;;;;;;;;;15.38;100.00;101126.22;5030740;28;19950;-73
2023/09/01 07:14:18;;;;;;;;;;;;;;;15.39;100.00;101121.69;5028560;28;19985;-73
2023/09/01 07:16:43;;;;;;;;;;;;;;;15.53;100.00;101117.69;5014309;28;19921;-73
2023/09/01 07:19:08;;;;;;;;;;;;;;;15.52;100.00;101115.97;5017010;28;20105;-74
2023/09/01 07:21:33;;;;;;;;;;;;;;;15.56;100.00;101120.94;5033944;28;20291;-73
2023/09/01 07:23:58;;;;;;;;;;;;;;;15.56;100.00;101115.53;5013174;28;19929;-73
2023/09/01 07:26:24;;;;;;;;;;;;;;;15.63;100.00;101117.66;5030250;28;19956;-73
2023/09/01 07:28:49;;;;;;;;;;;;;;;15.60;100.00;101113.41;5013291;28;19983;-73
2023/09/01 07:31:14;;;;;;;;;;;;;;;15.54;100.00;101112.09;5026755;28;22583;-73
2023/09/01 07:33:42;;;;;;;;;;;;;;;15.72;100.00;101105.97;5025751;28;20162;-73
2023/09/01 07:36:08;;;;;;;;;;;;;;;15.90;100.00;101108.75;5027812;28;19979;-73
2023/09/01 07:38:33;;;;;;;;;;;;;;;15.95;100.00;101111.88;5010804;28;20502;-73
2023/09/01 07:40:58;;;;;;;;;;;;;;;15.98;100.00;101102.63;5025341;28;19925;-73
2023/09/01 07:43:24;;;;;;;;;;;;;;;15.99;100.00;101107.03;5029226;28;19962;-73
2023/09/01 07:45:49;;;;;;;;;;;;;;;15.99;100.00;101105.19;5016422;28;19990;-73
2023/09/01 07:48:14;;;;;;;;;;;;;;;16.01;100.00;101105.03;5011870;28;20466;-73
2023/09/01 07:50:39;;;;;;;;;;;;;;;15.86;100.00;101078.44;5032532;28;20410;-73
2023/09/01 07:53:05;;;;;;;;;;;;;;;15.99;100.00;101102.47;5034637;28;20012;-73
2023/09/01 07:55:30;;;;;;;;;;;;;;;16.08;100.00;101100.72;5026040;28;19944;-73
2023/09/01 07:57:56;;;;;;;;;;;;;;;16.11;100.00;101099.59;5030631;28;19986;-74
2023/09/01 08:00:22;;;;;;;;;;;;;;;16.02;100.00;101095.91;5028452;28;20001;-73
2023/09/01 08:02:48;;;;;;;;;;;;;;;16.07;100.00;101092.75;5031866;28;19963;-73
2023/09/01 08:05:13;;;;;;;;;;;;;;;16.14;100.00;101099.28;5010511;28;20015;-73
2023/09/01 08:07:38;;;;;;;;;;;;;;;16.29;100.00;101096.91;5029562;28;20313;-73
2023/09/01 08:10:04;;;;;;;;;;;;;;;16.36;100.00;101099.88;5024897;28;19924;-74
2023/09/01 08:12:29;;;;;;;;;;;;;;;16.30;100.00;101102.19;5010852;28;19987;-73
2023/09/01 08:14:54;;;;;;;;;;;;;;;16.22;100.00;101102.06;5024239;28;19925;-73
2023/09/01 08:17:20;;;;;;;;;;;;;;;16.27;100.00;101107.91;5015677;28;19971;-73
2023/09/01 08:19:48;;;;;;;;;;;;;;;16.32;100.00;101118.28;5026237;28;20355;-74
2023/09/01 08:22:14;;;;;;;;;;;;;;;16.24;100.00;101127.16;5010386;28;20403;-74
2023/09/01 08:24:39;;;;;;;;;;;;;;;16.30;100.00;101136.53;5013385;28;19925;-73
2023/09/01 08:27:04;;;;;;;;;;;;;;;16.49;100.00;101130.16;5025562;28;19932;-73
2023/09/01 08:29:30;;;;;;;;;;;;;;;16.45;100.00;101121.50;5026805;28;19925;-74
2023/09/01 08:31:55;;;;;;;;;;;;;;;16.33;100.00;101134.41;5014384;28;19921;-74
2023/09/01 08:34:21;;;;;;;;;;;;;;;16.31;100.00;101147.25;5019068;28;20409;-74
2023/09/01 08:36:46;;;;;;;;;;;;;;;16.22;100.00;101137.28;5026359;28;20374;-77
2023/09/01 08:39:11;;;;;;;;;;;;;;;16.31;100.00;101143.66;5025528;28;19959;-73
2023/09/01 08:41:37;;;;;;;;;;;;;;;16.34;100.00;101141.53;5029210;28;20405;-73
2023/09/01 08:44:04;;;;;;;;;;;;;;;16.47;100.00;101140.31;5029158;28;20397;-73
2023/09/01 08:46:29;;;;;;;;;;;;;;;16.59;100.00;101141.81;5028277;28;19983;-73
2023/09/01 08:48:54;;;;;;;;;;;;;;;16.64;100.00;101141.34;5011340;28;19921;-74
2023/09/01 08:51:20;;;;;;;;;;;;;;;16.56;100.00;101147.53;5027423;28;19960;-73
2023/09/01 08:53:45;;;;;;;;;;;;;;;16.53;100.00;101149.72;5011081;28;20066;-73
2023/09/01 08:56:10;;;;;;;;;;;;;;;16.56;100.00;101135.84;5024837;28;19963;-73
2023/09/01 08:58:36;;;;;;;;;;;;;;;16.51;100.00;101155.28;5021857;28;20300;-73
2023/09/01 09:01:03;;;;;;;;;;;;;;;16.40;100.00;101153.63;5031168;28;19924;-73
2023/09/01 09:03:29;;;;;;;;;;;;;;;16.46;100.00;101153.03;5006777;28;20004;-73
2023/09/01 09:05:54;;;;;;;;;;;;;;;16.41;100.00;101152.59;5025875;28;19921;-75
2023/09/01 09:08:20;;;;;;;;;;;;;;;16.60;100.00;101143.53;5026295;28;19925;-73
2023/09/01 09:10:48;;;;;;;;;;;;;;;16.59;100.00;101162.63;5024441;28;19924;-73
2023/09/01 09:13:20;;;;;;;;;;;;;;;16.54;100.00;101162.25;5012882;28;19963;-75
2023/09/01 09:15:45;;;;;;;;;;;;;;;16.42;100.00;101157.03;5027877;28;20083;-73
2023/09/01 09:18:10;;;;;;;;;;;;;;;16.26;100.00;101118.91;5024769;28;19963;-73
2023/09/01 09:20:36;;;;;;;;;;;;;;;16.41;100.00;101163.44;5031418;28;20015;-73
2023/09/01 09:23:02;;;;;;;;;;;;;;;16.47;100.00;101160.16;5026217;28;19928;-73
2023/09/01 09:25:31;;;;;;;;;;;;;;;16.46;100.00;101157.56;5027183;28;19924;-73
2023/09/01 09:27:59;;;;;;;;;;;;;;;16.42;100.00;101164.31;5014836;28;19924;-74
2023/09/01 09:30:25;;;;;;;;;;;;;;;16.40;100.00;101169.88;5008510;28;20378;-73
2023/09/01 09:33:00;;;;;;;;;;;;;;;16.32;100.00;101165.22;5009638;28;19925;-74
2023/09/01 09:35:26;;;;;;;;;;;;;;;16.19;100.00;101178.22;5025048;28;19916;-75
2023/09/01 09:37:56;;;;;;;;;;;;;;;16.21;100.00;101181.63;5030149;28;20335;-73
2023/09/01 09:40:21;;;;;;;;;;;;;;;16.11;100.00;101178.13;5029489;28;20363;-73
2023/09/01 09:42:46;;;;;;;;;;;;;;;16.15;100.00;101193.09;5008754;28;19913;-73
2023/09/01 09:45:19;;;;;;;;;;;;;;;16.06;100.00;101178.56;5012739;28;19923;-75
2023/09/01 09:47:44;;;;;;;;;;;;;;;16.12;100.00;101177.13;5023955;28;19928;-74
2023/09/01 09:50:10;;;;;;;;;;;;;;;16.12;100.00;101177.13;5027646;28;20368;-74
2023/09/01 09:52:37;;;;;;;;;;;;;;;16.12;100.00;101177.97;5025247;28;20404;-73
2023/09/01 09:55:03;;;;;;;;;;;;;;;16.17;100.00;101180.22;5011991;28;19978;-74
2023/09/01 09:57:28;;;;;;;;;;;;;;;16.19;100.00;101189.06;5014231;28;19921;-74
2023/09/01 10:00:08;;;;;;;;;;;;;;;16.25;100.00;101193.88;5022890;28;20406;-73
2023/09/01 10:02:38;;;;;;;;;;;;;;;16.33;100.00;101188.59;5012247;28;19943;-74
2023/09/01 10:05:04;;;;;;;;;;;;;;;16.33;100.00;101183.19;5024251;28;20113;-73
2023/09/01 10:07:30;;;;;;;;;;;;;;;16.36;100.00;101187.44;5026851;28;20310;-74
2023/09/01 10:09:55;;;;;;;;;;;;;;;16.32;100.00;101186.88;5020843;28;19928;-74
2023/09/01 10:12:20;;;;;;;;;;;;;;;16.34;100.00;101192.13;5012839;28;20438;-73
2023/09/01 10:14:46;;;;;;;;;;;;;;;16.31;100.00;101189.72;5011953;28;20391;-73
2023/09/01 10:17:12;;;;;;;;;;;;;;;16.38;100.00;101190.00;5024428;28;19946;-73
2023/09/01 10:19:37;;;;;;;;;;;;;;;16.34;100.00;101184.00;5020359;28;19921;-73
2023/09/01 10:22:02;;;;;;;;;;;;;;;16.37;100.00;101182.88;5025286;28;20326;-73
2023/09/01 10:24:27;;;;;;;;;;;;;;;16.32;100.00;101176.03;5008284;28;20525;-74
2023/09/01 10:27:06;;;;;;;;;;;;;;;16.37;100.00;101177.47;5005633;28;20079;-73
2023/09/01 10:29:33;;;;;;;;;;;;;;;16.33;100.00;101180.47;5027975;28;20023;-75
2023/09/01 10:32:17;;;;;;;;;;;;;;;16.31;100.00;101171.63;5028043;28;20036;-74
2023/09/01 10:34:56;;;;;;;;;;;;;;;16.34;100.00;101173.16;5032755;28;19959;-73
2023/09/01 10:37:30;;;;;;;;;;;;;;;16.39;100.00;101181.72;5026545;28;19921;-73
2023/09/01 10:39:56;;;;;;;;;;;;;;;16.43;100.00;101172.28;5029302;28;19927;-74
2023/09/01 10:42:40;;;;;;;;;;;;;;;16.46;100.00;101174.69;5025385;28;19917;-73
2023/09/01 10:45:06;;;;;;;;;;;;;;;16.58;100.00;101169.06;5015196;28;19917;-75
2023/09/01 10:47:31;;;;;;;;;;;;;;;16.61;100.00;101174.19;5027188;28;20394;-74
2023/09/01 10:49:56;;;;;;;;;;;;;;;16.71;100.00;101174.13;5030468;28;20379;-73
2023/09/01 10:52:23;;;;;;;;;;;;;;;16.74;100.00;101166.56;5026965;28;19916;-73
2023/09/01 10:55:02;;;;;;;;;;;;;;;16.81;100.00;101171.38;5032262;28;19929;-74
2023/09/01 10:57:43;;;;;;;;;;;;;;;16.91;100.00;101172.16;5028341;28;19959;-73
2023/09/01 11:00:27;;;;;;;;;;;;;;;17.05;100.00;101178.94;5027124;28;19931;-73
2023/09/01 11:02:53;;;;;;;;;;;;;;;17.19;100.00;101178.41;5029113;28;19920;-74
2023/09/01 11:05:37;;;;;;;;;;;;;;;17.21;100.00;101179.13;5029948;28;19982;-75
2023/09/01 11:08:18;;;;;;;;;;;;;;;17.23;100.00;101171.66;5030982;28;20487;-73
2023/09/01 11:10:44;;;;;;;;;;;;;;;17.17;100.00;101179.56;5028058;28;19931;-73
2023/09/01 11:13:19;;;;;;;;;;;;;;;17.20;100.00;101184.69;5032080;28;19929;-73
2023/09/01 11:15:47;;;;;;;;;;;;;;;17.10;100.00;101173.91;5021624;28;20601;-74
2023/09/01 11:18:16;;;;;;;;;;;;;;;17.06;100.00;101173.38;5031157;28;19925;-74
2023/09/01 11:20:42;;;;;;;;;;;;;;;17.13;100.00;101176.31;5027849;28;19950;-73
2023/09/01 11:23:09;;;;;;;;;;;;;;;17.15;100.00;101182.44;5026492;28;19973;-73
2023/09/01 11:25:34;;;;;;;;;;;;;;;17.23;100.00;101182.50;5027922;28;19917;-73
2023/09/01 11:27:59;;;;;;;;;;;;;;;17.16;100.00;101188.72;5015885;28;19921;-74
2023/09/01 11:30:24;;;;;;;;;;;;;;;17.02;100.00;101188.25;5032858;28;19959;-73
2023/09/01 11:32:50;;;;;;;;;;;;;;;17.03;100.00;101191.78;5026861;28;19959;-74
2023/09/01 11:35:24;;;;;;;;;;;;;;;17.11;100.00;101200.03;5027869;28;19925;-74
2023/09/01 11:37:49;;;;;;;;;;;;;;;17.18;100.00;101197.53;5024087;28;20114;-73
2023/09/01 11:40:14;;;;;;;;;;;;;;;17.04;100.00;101188.94;5025556;28;19924;-73
2023/09/01 11:42:40;;;;;;;;;;;;;;;17.12;100.00;101201.75;5028518;28;19948;-74
2023/09/01 11:45:06;;;;;;;;;;;;;;;17.24;100.00;101202.38;5031571;28;19921;-73
2023/09/01 11:47:31;;;;;;;;;;;;;;;17.39;100.00;101198.09;5025478;28;19921;-73
2023/09/01 11:49:56;;;;;;;;;;;;;;;17.61;100.00;101195.06;5028803;28;19946;-74
2023/09/01 11:52:23;;;;;;;;;;;;;;;17.71;100.00;101200.38;5013132;28;19925;-74
2023/09/01 11:54:48;;;;;;;;;;;;;;;17.90;100.00;101200.19;5021984;28;19938;-74
2023/09/01 11:57:13;;;;;;;;;;;;;;;17.94;100.00;101198.84;5030397;28;20413;-73
2023/09/01 11:59:45;;;;;;;;;;;;;;;18.42;100.00;101203.91;5027888;28;20330;-73
2023/09/01 12:02:12;;;;;;;;;;;;;;;18.96;100.00;101205.50;5012639;28;20451;-73
2023/09/01 12:04:47;;;;;;;;;;;;;;;19.25;100.00;101202.34;5022181;28;19920;-73
2023/09/01 12:07:25;;;;;;;;;;;;;;;19.52;100.00;101203.06;5034078;28;19927;-74
2023/09/01 12:09:52;;;;;;;;;;;;;;;19.52;100.00;101204.91;5024536;28;19925;-74
2023/09/01 12:12:17;;;;;;;;;;;;;;;19.27;100.00;101216.66;5031786;28;19931;-74
2023/09/01 12:14:42;;;;;;;;;;;;;;;19.17;100.00;101227.69;5027423;28;20107;-73
2023/09/01 12:17:17;;;;;;;;;;;;;;;19.12;100.00;101208.28;5026721;28;20027;-73
2023/09/01 12:19:52;;;;;;;;;;;;;;;19.05;100.00;101220.84;5023572;28;20393;-74
2023/09/01 12:22:18;;;;;;;;;;;;;;;18.89;100.00;101214.31;5032649;28;20495;-73
2023/09/01 12:24:49;;;;;;;;;;;;;;;19.01;100.00;101224.91;5031124;28;20828;-73